createdAt,value
2022-10-05T00:02:58.123Z,74.14
2022-10-05T00:06:01.463Z,74.73
2022-10-05T00:09:14.267Z,74.55
2022-10-05T00:12:18.813Z,74.09
2022-10-05T00:15:24.109Z,74.62
2022-10-05T00:18:28.019Z,73.93
2022-10-05T00:21:30.941Z,74.48
2022-10-05T00:24:35.038Z,74.87
2022-10-05T00:27:38.883Z,74.81
2022-10-05T00:30:41.959Z,75.18
2022-10-05T00:33:44.663Z,74.92
2022-10-05T00:36:47.793Z,74.72
2022-10-05T00:39:52.103Z,74.90
2022-10-05T00:43:05.680Z,75.27
2022-10-05T00:46:16.086Z,74.34
2022-10-05T00:49:42.595Z,74.74
2022-10-05T00:52:54.688Z,74.76
2022-10-05T00:56:04.241Z,75.07
2022-10-05T00:59:20.124Z,75.24
2022-10-05T01:02:36.521Z,74.83
2022-10-05T01:05:52.931Z,74.71
2022-10-05T01:09:04.863Z,75.09
2022-10-05T01:12:15.180Z,74.51
2022-10-05T01:15:26.060Z,74.96
2022-10-05T01:18:38.794Z,75.37
2022-10-05T01:21:48.078Z,74.88
2022-10-05T01:25:03.647Z,75.49
2022-10-05T01:28:11.465Z,75.26
2022-10-05T01:31:23.826Z,74.92
2022-10-05T01:34:36.837Z,75.31
2022-10-05T01:37:50.097Z,75.01
2022-10-05T01:40:59.989Z,74.73
2022-10-05T01:44:08.314Z,74.82
2022-10-05T01:47:20.045Z,74.85
2022-10-05T01:50:31.605Z,75.06
2022-10-05T01:53:46.755Z,75.21
2022-10-05T01:56:56.634Z,74.82
2022-10-05T02:00:07.662Z,75.39
2022-10-05T02:03:17.398Z,75.02
2022-10-05T02:06:24.297Z,74.78
2022-10-05T02:09:30.407Z,75.11
2022-10-05T02:12:37.511Z,75.50
2022-10-05T02:15:45.020Z,75.12
2022-10-05T02:18:54.027Z,75.65
2022-10-05T02:22:03.297Z,75.52
2022-10-05T02:25:10.572Z,75.80
2022-10-05T02:28:17.645Z,75.63
2022-10-05T02:31:26.088Z,75.48
2022-10-05T02:34:30.684Z,75.57
2022-10-05T02:37:42.199Z,75.65
2022-10-05T02:40:52.513Z,75.53
2022-10-05T02:44:06.945Z,75.87
2022-10-05T02:47:19.695Z,75.93
2022-10-05T02:50:28.173Z,75.76
2022-10-05T02:53:38.978Z,75.50
2022-10-05T02:56:49.015Z,75.69
2022-10-05T02:59:56.268Z,75.27
2022-10-05T03:03:07.430Z,75.59
2022-10-05T03:06:21.031Z,75.95
2022-10-05T03:09:28.183Z,75.68
2022-10-05T03:12:53.831Z,75.69
2022-10-05T03:16:09.029Z,76.39
2022-10-05T03:19:30.803Z,76.10
2022-10-05T03:22:47.967Z,76.26
2022-10-05T03:26:06.053Z,76.04
2022-10-05T03:29:21.883Z,76.34
2022-10-05T03:32:33.255Z,76.08
2022-10-05T03:35:49.953Z,76.30
2022-10-05T03:39:01.921Z,76.12
2022-10-05T03:42:11.374Z,76.28
2022-10-05T03:45:24.765Z,76.60
2022-10-05T03:48:32.035Z,76.35
2022-10-05T03:51:39.256Z,76.65
2022-10-05T03:54:47.892Z,76.30
2022-10-05T03:57:53.423Z,76.37
2022-10-05T04:01:02.980Z,76.51
2022-10-05T04:04:12.489Z,76.04
2022-10-05T04:07:29.022Z,75.47
2022-10-05T04:10:40.879Z,75.87
2022-10-05T04:13:50.134Z,76.19
2022-10-05T04:16:56.219Z,76.02
2022-10-05T04:20:04.212Z,76.06
2022-10-05T04:23:18.547Z,76.19
2022-10-05T04:26:31.251Z,76.70
2022-10-05T04:29:39.455Z,76.73
2022-10-05T04:32:44.286Z,76.94
2022-10-05T04:36:12.906Z,76.72
2022-10-05T04:39:24.782Z,77.07
2022-10-05T04:42:34.041Z,76.82
2022-10-05T04:45:50.531Z,76.64
2022-10-05T04:49:15.186Z,77.29
2022-10-05T04:52:26.012Z,77.11
2022-10-05T04:55:37.357Z,76.87
2022-10-05T04:58:54.836Z,76.24
2022-10-05T05:02:06.746Z,76.96
2022-10-05T05:05:24.048Z,76.77
2022-10-05T05:08:46.091Z,76.26
2022-10-05T05:12:03.940Z,76.01
2022-10-05T05:15:29.868Z,76.85
2022-10-05T05:18:50.241Z,76.60
2022-10-05T05:22:01.106Z,76.52
2022-10-05T05:25:26.679Z,76.16
2022-10-05T05:28:40.868Z,76.12
2022-10-05T05:31:49.018Z,75.40
2022-10-05T05:35:15.354Z,75.36
2022-10-05T05:38:30.953Z,75.14
2022-10-05T05:41:38.731Z,75.31
2022-10-05T05:44:47.189Z,74.91
2022-10-05T05:47:53.852Z,74.77
2022-10-05T05:51:00.779Z,74.88
2022-10-05T05:54:19.683Z,73.88
2022-10-05T05:57:28.873Z,73.90
2022-10-05T06:00:37.645Z,73.14
2022-10-05T06:03:47.344Z,73.71
2022-10-05T06:06:53.583Z,72.94
2022-10-05T06:10:02.560Z,73.61
2022-10-05T06:13:11.483Z,73.39
2022-10-05T06:16:22.194Z,72.79
2022-10-05T06:19:27.337Z,71.79
2022-10-05T06:22:35.480Z,72.71
2022-10-05T06:25:45.658Z,72.28
2022-10-05T06:28:53.574Z,71.66
2022-10-05T06:32:07.108Z,72.54
2022-10-05T06:35:21.935Z,71.92
2022-10-05T06:38:54.539Z,71.39
2022-10-05T06:42:11.150Z,71.62
2022-10-05T06:45:21.866Z,70.36
2022-10-05T06:48:42.232Z,70.37
2022-10-05T06:51:52.654Z,70.46
2022-10-05T06:55:14.526Z,69.41
2022-10-05T06:58:37.347Z,68.93
2022-10-05T07:01:51.245Z,70.04
2022-10-05T07:05:20.312Z,69.41
2022-10-05T07:08:34.946Z,68.99
2022-10-05T07:12:04.894Z,67.04
2022-10-05T07:15:25.633Z,67.47
2022-10-05T07:18:57.422Z,67.62
2022-10-05T07:22:29.313Z,66.48
2022-10-05T07:25:47.567Z,66.20
2022-10-05T07:29:12.806Z,65.37
2022-10-05T07:32:27.844Z,62.62
2022-10-05T07:35:59.496Z,64.12
2022-10-05T07:39:09.601Z,63.75
2022-10-05T07:42:24.284Z,62.94
2022-10-05T07:45:33.955Z,62.61
2022-10-05T07:48:52.195Z,62.43
2022-10-05T07:51:58.333Z,63.11
2022-10-05T07:55:06.782Z,63.17
2022-10-05T07:58:17.910Z,64.01
2022-10-05T08:01:27.124Z,63.80
2022-10-05T08:04:41.880Z,63.81
2022-10-05T08:07:45.037Z,63.76
2022-10-05T08:10:56.886Z,63.84
2022-10-05T08:14:06.194Z,62.82
2022-10-05T08:17:14.440Z,62.56
2022-10-05T08:20:30.803Z,62.40
2022-10-05T08:23:39.130Z,62.97
2022-10-05T08:26:51.156Z,61.42
2022-10-05T08:29:58.082Z,61.03
2022-10-05T08:33:09.541Z,60.39
2022-10-05T08:36:15.488Z,60.25
2022-10-05T08:39:21.501Z,60.83
2022-10-05T08:42:53.041Z,60.89
2022-10-05T08:46:13.980Z,59.17
2022-10-05T08:49:56.247Z,58.98
2022-10-05T08:53:20.747Z,59.12
2022-10-05T08:56:42.025Z,59.66
2022-10-05T09:00:04.189Z,58.41
2022-10-05T09:03:28.943Z,58.61
2022-10-05T09:07:08.799Z,58.75
2022-10-05T09:10:48.707Z,56.99
2022-10-05T09:14:15.363Z,55.59
2022-10-05T09:17:50.191Z,56.66
2022-10-05T09:20:54.161Z,56.58
2022-10-05T09:24:11.600Z,56.66
2022-10-05T09:27:17.126Z,57.22
2022-10-05T09:30:43.933Z,57.83
2022-10-05T09:34:21.112Z,58.19
2022-10-05T09:37:55.249Z,57.72
2022-10-05T09:41:32.679Z,57.07
2022-10-05T09:45:03.630Z,56.69
2022-10-05T09:48:41.793Z,55.79
2022-10-05T09:52:11.569Z,55.86
2022-10-05T09:55:34.312Z,55.33
2022-10-05T09:59:13.319Z,54.81
2022-10-05T10:02:38.793Z,55.16
2022-10-05T10:06:02.408Z,54.78
2022-10-05T10:09:22.343Z,55.26
2022-10-05T10:12:38.385Z,54.74
2022-10-05T10:16:19.423Z,53.71
2022-10-05T10:20:03.028Z,53.47
2022-10-05T10:23:24.281Z,52.59
2022-10-05T10:27:12.611Z,51.61
2022-10-05T10:30:51.873Z,51.68
2022-10-05T10:34:07.233Z,50.86
2022-10-05T10:37:34.754Z,52.71
2022-10-05T10:40:55.568Z,52.94
2022-10-05T10:44:47.228Z,53.94
2022-10-05T10:48:00.239Z,53.94
2022-10-05T10:51:18.448Z,49.58
2022-10-05T10:54:49.475Z,50.56
2022-10-05T10:58:16.376Z,51.27
2022-10-05T11:01:31.863Z,51.27
2022-10-05T11:05:04.521Z,49.12
2022-10-05T11:08:35.463Z,48.67
2022-10-05T11:12:12.757Z,49.19
2022-10-05T11:15:36.639Z,46.88
2022-10-05T11:19:04.114Z,46.02
2022-10-05T11:22:19.145Z,45.33
2022-10-05T11:25:54.013Z,45.51
2022-10-05T11:29:35.173Z,46.27
2022-10-05T11:33:04.193Z,47.00
2022-10-05T11:36:55.354Z,44.51
2022-10-05T11:40:29.370Z,45.99
2022-10-05T11:43:53.027Z,47.18
2022-10-05T11:47:03.873Z,48.02
2022-10-05T11:50:20.824Z,48.95
2022-10-05T11:53:28.998Z,49.50
2022-10-05T11:56:39.518Z,50.20
2022-10-05T11:59:49.251Z,49.39
2022-10-05T12:03:09.316Z,48.37
2022-10-05T12:06:22.377Z,46.86
2022-10-05T12:10:03.577Z,47.61
2022-10-05T12:13:19.326Z,45.72
2022-10-05T12:16:26.864Z,45.39
2022-10-05T12:19:37.238Z,46.73
2022-10-05T12:22:45.149Z,46.90
2022-10-05T12:25:54.634Z,46.28
2022-10-05T12:29:07.802Z,47.57
2022-10-05T12:32:21.386Z,46.61
2022-10-05T12:35:47.428Z,47.62
2022-10-05T12:38:59.098Z,46.21
2022-10-05T12:42:15.874Z,46.35
2022-10-05T12:45:28.928Z,44.79
2022-10-05T12:49:23.116Z,46.42
2022-10-05T12:52:43.426Z,46.28
2022-10-05T12:55:54.265Z,45.54
2022-10-05T12:59:05.540Z,47.38
2022-10-05T13:02:20.045Z,47.47
2022-10-05T13:05:32.730Z,47.69
2022-10-05T13:08:45.920Z,47.65
2022-10-05T13:11:51.718Z,46.71
2022-10-05T13:15:00.719Z,47.63
2022-10-05T13:18:18.360Z,48.16
2022-10-05T13:21:27.782Z,47.43
2022-10-05T13:24:37.094Z,48.27
2022-10-05T13:27:45.138Z,48.70
2022-10-05T13:31:02.837Z,47.86
2022-10-05T13:34:18.945Z,48.41
2022-10-05T13:37:32.037Z,49.21
2022-10-05T13:40:39.119Z,49.31
2022-10-05T13:43:50.443Z,49.27
2022-10-05T13:47:01.317Z,48.72
2022-10-05T13:50:15.704Z,46.37
2022-10-05T13:53:24.326Z,47.59
2022-10-05T13:56:31.660Z,47.17
2022-10-05T13:59:39.057Z,47.30
2022-10-05T14:02:44.639Z,47.65
2022-10-05T14:05:57.368Z,47.77
2022-10-05T14:09:00.196Z,47.94
2022-10-05T14:12:20.289Z,47.82
2022-10-05T14:15:29.353Z,48.97
2022-10-05T14:18:34.148Z,48.83
2022-10-05T14:21:50.847Z,49.07
2022-10-05T14:24:56.732Z,48.81
2022-10-05T14:28:11.222Z,49.06
2022-10-05T14:31:16.657Z,49.63
2022-10-05T14:34:34.829Z,50.68
2022-10-05T14:37:50.341Z,50.69
2022-10-05T14:41:19.039Z,50.86
2022-10-05T14:44:29.896Z,50.18
2022-10-05T14:47:34.398Z,50.00
2022-10-05T14:50:52.172Z,50.13
2022-10-05T14:54:00.257Z,50.78
2022-10-05T14:57:18.015Z,51.46
2022-10-05T15:00:21.253Z,51.56
2022-10-05T15:03:36.800Z,52.49
2022-10-05T15:06:42.737Z,52.42
2022-10-05T15:10:15.770Z,52.24
2022-10-05T15:13:21.411Z,52.54
2022-10-05T15:16:28.790Z,51.42
2022-10-05T15:19:44.933Z,51.99
2022-10-05T15:22:55.199Z,51.95
2022-10-05T15:26:13.826Z,51.93
2022-10-05T15:29:29.391Z,52.17
2022-10-05T15:32:44.239Z,52.15
2022-10-05T15:36:00.558Z,52.56
2022-10-05T15:39:12.188Z,53.30
2022-10-05T15:42:19.003Z,50.84
2022-10-05T15:45:25.296Z,51.61
2022-10-05T15:48:41.078Z,52.50
2022-10-05T15:51:56.501Z,52.92
2022-10-05T15:55:24.253Z,53.62
2022-10-05T15:58:43.160Z,52.92
2022-10-05T16:01:53.029Z,53.24
2022-10-05T16:05:07.441Z,53.41
2022-10-05T16:08:44.691Z,53.88
2022-10-05T16:12:12.026Z,54.13
2022-10-05T16:15:26.169Z,53.30
2022-10-05T16:18:45.700Z,54.36
2022-10-05T16:22:02.567Z,54.06
2022-10-05T16:25:14.615Z,53.80
2022-10-05T16:28:29.762Z,54.34
2022-10-05T16:31:43.833Z,54.21
2022-10-05T16:35:02.232Z,53.94
2022-10-05T16:38:16.293Z,54.07
2022-10-05T16:41:28.477Z,53.92
2022-10-05T16:44:41.525Z,54.05
2022-10-05T16:47:51.136Z,53.78
2022-10-05T16:51:08.521Z,54.56
2022-10-05T16:54:19.969Z,55.16
2022-10-05T16:57:26.448Z,55.60
2022-10-05T17:00:37.481Z,55.45
2022-10-05T17:04:06.821Z,55.39
2022-10-05T17:07:39.414Z,55.83
2022-10-05T17:10:57.848Z,56.16
2022-10-05T17:14:17.843Z,56.02
2022-10-05T17:17:39.259Z,56.36
2022-10-05T17:20:49.876Z,56.91
2022-10-05T17:23:55.489Z,57.23
2022-10-05T17:27:03.186Z,57.49
2022-10-05T17:30:36.652Z,58.25
2022-10-05T17:34:29.373Z,58.59
2022-10-05T17:37:41.757Z,59.31
2022-10-05T17:41:20.467Z,59.92
2022-10-05T17:44:26.929Z,60.26
2022-10-05T17:47:56.756Z,60.73
2022-10-05T17:51:17.651Z,61.07
2022-10-05T17:54:41.898Z,61.62
2022-10-05T17:57:44.805Z,62.16
2022-10-05T18:01:14.382Z,62.32
2022-10-05T18:04:38.880Z,62.61
2022-10-05T18:07:47.825Z,63.34
2022-10-05T18:11:17.308Z,63.34
2022-10-05T18:14:54.247Z,64.15
2022-10-05T18:18:21.192Z,63.73
2022-10-05T18:21:39.705Z,63.97
2022-10-05T18:24:56.164Z,64.60
2022-10-05T18:28:24.937Z,64.68
2022-10-05T18:31:46.569Z,64.65
2022-10-05T18:35:02.011Z,64.93
2022-10-05T18:38:21.903Z,65.41
2022-10-05T18:41:45.612Z,65.71
2022-10-05T18:44:53.373Z,65.86
2022-10-05T18:48:10.363Z,65.98
2022-10-05T18:51:24.257Z,66.69
2022-10-05T18:54:42.420Z,66.78
2022-10-05T18:57:54.533Z,66.63
2022-10-05T19:01:17.567Z,66.92
2022-10-05T19:04:28.953Z,67.30
2022-10-05T19:07:44.811Z,67.17
2022-10-05T19:10:55.198Z,67.81
2022-10-05T19:14:06.048Z,67.62
2022-10-05T19:17:25.833Z,67.51
2022-10-05T19:20:35.617Z,67.44
2022-10-05T19:23:58.358Z,67.98
2022-10-05T19:27:07.802Z,67.75
2022-10-05T19:30:21.109Z,67.46
2022-10-05T19:33:42.575Z,68.14
2022-10-05T19:36:55.533Z,67.94
2022-10-05T19:40:07.223Z,68.06
2022-10-05T19:43:27.438Z,67.55
2022-10-05T19:46:47.407Z,67.47
2022-10-05T19:50:00.176Z,67.31
2022-10-05T19:53:12.287Z,67.49
2022-10-05T19:56:20.607Z,67.89
2022-10-05T19:59:27.568Z,67.96
2022-10-05T20:02:33.055Z,67.72
2022-10-05T20:05:37.220Z,67.16
2022-10-05T20:08:41.904Z,66.94
2022-10-05T20:11:50.581Z,66.81
2022-10-05T20:15:26.657Z,67.20
2022-10-05T20:18:58.725Z,67.13
2022-10-05T20:22:27.251Z,67.27
2022-10-05T20:25:31.987Z,67.96
2022-10-05T20:28:34.665Z,67.60
2022-10-05T20:31:37.386Z,67.49
2022-10-05T20:34:42.022Z,67.24
2022-10-05T20:37:45.954Z,68.45
2022-10-05T20:40:48.877Z,67.89
2022-10-05T20:43:51.455Z,68.13
2022-10-05T20:46:55.674Z,68.61
2022-10-05T20:49:58.380Z,68.37
2022-10-05T20:53:02.251Z,68.09
2022-10-05T20:56:05.032Z,68.07
2022-10-05T20:59:07.577Z,68.25
2022-10-05T21:02:10.593Z,68.36
2022-10-05T21:05:13.366Z,67.96
2022-10-05T21:08:17.834Z,68.17
2022-10-05T21:11:20.565Z,68.27
2022-10-05T21:14:23.715Z,68.26
2022-10-05T21:17:26.434Z,68.18
2022-10-05T21:20:28.964Z,68.23
2022-10-05T21:23:33.645Z,68.23
2022-10-05T21:26:37.447Z,68.09
2022-10-05T21:29:41.317Z,67.99
2022-10-05T21:32:44.760Z,67.98
2022-10-05T21:35:47.612Z,67.92
2022-10-05T21:38:52.654Z,68.03
2022-10-05T21:41:55.173Z,68.10
2022-10-05T21:44:57.851Z,67.88
2022-10-05T21:48:00.630Z,68.70
2022-10-05T21:51:03.724Z,68.64
2022-10-05T21:54:12.654Z,68.21
2022-10-05T21:57:15.491Z,68.24
2022-10-05T22:00:18.641Z,68.67
2022-10-05T22:03:21.526Z,68.10
2022-10-05T22:06:24.234Z,68.47
2022-10-05T22:09:28.276Z,67.81
2022-10-05T22:12:31.040Z,67.89
2022-10-05T22:15:33.737Z,68.09
2022-10-05T22:18:36.333Z,68.08
2022-10-05T22:21:41.791Z,68.06
2022-10-05T22:24:46.029Z,68.29
2022-10-05T22:27:50.012Z,68.45
2022-10-05T22:30:52.755Z,68.55
2022-10-05T22:33:55.354Z,68.89
2022-10-05T22:36:58.084Z,69.39
2022-10-05T22:40:02.066Z,69.45
2022-10-05T22:43:04.782Z,69.82
2022-10-05T22:46:11.982Z,69.35
2022-10-05T22:49:14.911Z,69.83
2022-10-05T22:52:17.626Z,69.90
2022-10-05T22:55:21.629Z,69.91
2022-10-05T22:58:24.747Z,69.84
2022-10-05T23:01:28.122Z,69.91
2022-10-05T23:04:31.042Z,69.69
2022-10-05T23:07:36.871Z,69.64
2022-10-05T23:10:40.907Z,69.76
2022-10-05T23:13:43.588Z,69.98
2022-10-05T23:16:46.372Z,70.05
2022-10-05T23:19:49.098Z,70.37
2022-10-05T23:22:51.683Z,70.54
2022-10-05T23:26:00.582Z,70.12
2022-10-05T23:29:03.182Z,70.22
2022-10-05T23:32:06.088Z,70.63
2022-10-05T23:35:10.223Z,70.12
2022-10-05T23:38:12.902Z,70.68
2022-10-05T23:41:17.327Z,70.24
2022-10-05T23:44:20.054Z,71.11
2022-10-05T23:47:22.759Z,70.62
2022-10-05T23:50:26.952Z,70.68
2022-10-05T23:53:29.770Z,70.92
2022-10-05T23:56:33.964Z,70.70
2022-10-05T23:59:36.945Z,70.71
